createdAt,value
2023-04-29T00:00:03.423Z,97577.88
2023-04-29T00:02:36.722Z,97582.94
2023-04-29T00:05:11.656Z,97574.31
2023-04-29T00:07:44.733Z,97578.06
2023-04-29T00:10:17.891Z,97572.59
2023-04-29T00:12:51.567Z,97577.72
2023-04-29T00:15:24.653Z,97570.19
2023-04-29T00:17:57.663Z,97565.56
2023-04-29T00:20:32.048Z,97564.78
2023-04-29T00:23:05.127Z,97571.38
2023-04-29T00:25:39.071Z,97564.63
2023-04-29T00:28:12.357Z,97565.50
2023-04-29T00:30:45.576Z,97571.34
2023-04-29T00:33:18.654Z,97565.09
2023-04-29T00:35:53.060Z,97574.47
2023-04-29T00:38:26.184Z,97571.34
2023-04-29T00:40:59.160Z,97570.59
2023-04-29T00:43:32.155Z,97573.00
2023-04-29T00:46:05.194Z,97571.19
2023-04-29T00:48:38.549Z,97565.75
2023-04-29T00:51:13.072Z,97575.28
2023-04-29T00:53:47.987Z,97573.28
2023-04-29T00:56:23.037Z,97574.88
2023-04-29T00:58:56.670Z,97578.16
2023-04-29T01:01:30.591Z,97582.41
2023-04-29T01:04:05.430Z,97581.38
2023-04-29T01:06:54.372Z,97578.31
2023-04-29T01:09:54.881Z,97586.69
2023-04-29T01:12:36.311Z,97591.66
2023-04-29T01:15:18.964Z,97591.50
2023-04-29T01:17:57.721Z,97596.31
2023-04-29T01:20:32.364Z,97598.63
2023-04-29T01:23:06.694Z,97600.94
2023-04-29T01:25:41.159Z,97591.59
2023-04-29T01:28:28.876Z,97598.84
2023-04-29T01:31:10.021Z,97601.34
2023-04-29T01:33:49.867Z,97600.31
2023-04-29T01:36:35.441Z,97600.13
2023-04-29T01:39:15.891Z,97598.34
2023-04-29T01:41:59.551Z,97600.84
2023-04-29T01:44:35.160Z,97595.47
2023-04-29T01:47:10.547Z,97600.44
2023-04-29T01:49:43.509Z,97597.78
2023-04-29T01:52:16.504Z,97602.00
2023-04-29T01:54:49.589Z,97599.09
2023-04-29T01:57:23.959Z,97604.91
2023-04-29T01:59:57.270Z,97603.34
2023-04-29T02:02:30.355Z,97599.09
2023-04-29T02:05:03.359Z,97589.69
2023-04-29T02:07:36.320Z,97603.53
2023-04-29T02:10:10.580Z,97592.44
2023-04-29T02:12:44.911Z,97591.38
2023-04-29T02:15:18.662Z,97592.09
2023-04-29T02:17:51.762Z,97589.53
2023-04-29T02:20:24.754Z,97586.81
2023-04-29T02:22:57.725Z,97588.72
2023-04-29T02:25:30.698Z,97592.00
2023-04-29T02:28:05.074Z,97588.41
2023-04-29T02:30:38.009Z,97597.03
2023-04-29T02:33:11.299Z,97599.41
2023-04-29T02:35:44.275Z,97605.13
2023-04-29T02:38:17.421Z,97593.19
2023-04-29T02:40:50.457Z,97602.41
2023-04-29T02:43:24.805Z,97599.88
2023-04-29T02:45:58.011Z,97599.44
2023-04-29T02:48:30.988Z,97602.91
2023-04-29T02:51:04.171Z,97597.97
2023-04-29T02:53:37.204Z,97604.81
2023-04-29T02:56:10.175Z,97599.97
2023-04-29T02:58:44.498Z,97605.13
2023-04-29T03:01:17.597Z,97606.13
2023-04-29T03:03:50.993Z,97596.69
2023-04-29T03:06:24.030Z,97595.91
2023-04-29T03:08:57.673Z,97602.75
2023-04-29T03:11:30.641Z,97603.72
2023-04-29T03:14:05.033Z,97605.63
2023-04-29T03:16:38.438Z,97609.16
2023-04-29T03:19:11.900Z,97612.88
2023-04-29T03:21:45.244Z,97610.50
2023-04-29T03:24:18.341Z,97600.00
2023-04-29T03:26:51.277Z,97603.72
2023-04-29T03:29:26.323Z,97604.16
2023-04-29T03:31:59.374Z,97602.75
2023-04-29T03:34:32.367Z,97598.44
2023-04-29T03:37:05.346Z,97597.75
2023-04-29T03:39:38.657Z,97592.78
2023-04-29T03:42:11.985Z,97593.66
2023-04-29T03:44:46.309Z,97600.53
2023-04-29T03:47:19.287Z,97601.50
2023-04-29T03:49:52.580Z,97586.97
2023-04-29T03:52:25.815Z,97586.81
2023-04-29T03:54:58.836Z,97593.66
2023-04-29T03:57:31.961Z,97593.66
2023-04-29T04:00:07.975Z,97593.66
2023-04-29T04:02:41.100Z,97587.91
2023-04-29T04:05:14.312Z,97583.28
2023-04-29T04:07:47.497Z,97588.13
2023-04-29T04:10:20.701Z,97594.59
2023-04-29T04:12:53.870Z,97588.63
2023-04-29T04:15:28.206Z,97589.31
2023-04-29T04:18:01.268Z,97597.31
2023-04-29T04:20:34.312Z,97602.34
2023-04-29T04:23:07.323Z,97598.44
2023-04-29T04:25:40.355Z,97601.00
2023-04-29T04:28:13.359Z,97608.66
2023-04-29T04:30:47.922Z,97613.78
2023-04-29T04:33:20.897Z,97619.03
2023-04-29T04:35:54.136Z,97626.53
2023-04-29T04:38:27.818Z,97625.03
2023-04-29T04:41:01.489Z,97626.09
2023-04-29T04:43:34.466Z,97625.94
2023-04-29T04:46:16.820Z,97634.47
2023-04-29T04:48:49.917Z,97635.63
2023-04-29T04:51:22.908Z,97638.88
2023-04-29T04:53:55.942Z,97638.88
2023-04-29T04:56:28.877Z,97642.56
2023-04-29T04:59:01.839Z,97648.47
2023-04-29T05:01:36.181Z,97645.28
2023-04-29T05:04:09.331Z,97651.28
2023-04-29T05:06:42.505Z,97647.41
2023-04-29T05:09:15.621Z,97649.44
2023-04-29T05:11:48.589Z,97655.50
2023-04-29T05:14:21.578Z,97656.19
2023-04-29T05:16:59.934Z,97659.22
2023-04-29T05:19:32.914Z,97656.03
2023-04-29T05:22:05.890Z,97665.13
2023-04-29T05:24:38.858Z,97665.53
2023-04-29T05:27:11.866Z,97670.59
2023-04-29T05:29:44.834Z,97677.28
2023-04-29T05:32:19.137Z,97672.34
2023-04-29T05:34:52.138Z,97679.03
2023-04-29T05:37:30.640Z,97690.38
2023-04-29T05:40:04.189Z,97691.75
2023-04-29T05:42:37.428Z,97699.53
2023-04-29T05:45:12.415Z,97696.97
2023-04-29T05:47:46.822Z,97703.38
2023-04-29T05:50:19.895Z,97707.31
2023-04-29T05:52:54.687Z,97710.59
2023-04-29T05:55:27.641Z,97716.47
2023-04-29T05:58:00.628Z,97711.22
2023-04-29T06:00:33.594Z,97722.16
2023-04-29T06:03:09.681Z,97716.78
2023-04-29T06:05:43.288Z,97716.78
2023-04-29T06:08:16.632Z,97721.34
2023-04-29T06:10:51.793Z,97721.13
2023-04-29T06:13:24.982Z,97736.16
2023-04-29T06:15:58.029Z,97729.75
2023-04-29T06:18:32.457Z,97731.84
2023-04-29T06:21:05.709Z,97726.66
2023-04-29T06:23:38.746Z,97738.06
2023-04-29T06:26:11.749Z,97742.06
2023-04-29T06:28:44.724Z,97754.09
2023-04-29T06:31:17.964Z,97750.16
2023-04-29T06:33:52.399Z,97754.63
2023-04-29T06:36:25.384Z,97757.75
2023-04-29T06:38:58.417Z,97763.75
2023-04-29T06:41:32.050Z,97768.88
2023-04-29T06:44:05.202Z,97773.66
2023-04-29T06:46:39.179Z,97766.78
2023-04-29T06:49:13.556Z,97768.75
2023-04-29T06:51:46.585Z,97771.00
2023-04-29T06:54:19.559Z,97770.19
2023-04-29T06:56:52.635Z,97777.16
2023-04-29T06:59:25.630Z,97777.47
2023-04-29T07:01:58.615Z,97783.47
2023-04-29T07:04:32.962Z,97778.78
2023-04-29T07:07:06.139Z,97775.66
2023-04-29T07:09:39.149Z,97777.00
2023-04-29T07:12:12.117Z,97777.47
2023-04-29T07:14:45.066Z,97778.34
2023-04-29T07:17:18.082Z,97786.78
2023-04-29T07:19:53.521Z,97786.41
2023-04-29T07:22:26.880Z,97798.38
2023-04-29T07:25:00.036Z,97789.59
2023-04-29T07:27:35.593Z,97794.38
2023-04-29T07:30:10.181Z,97798.34
2023-04-29T07:32:43.227Z,97792.66
2023-04-29T07:35:17.845Z,97792.47
2023-04-29T07:37:50.844Z,97798.22
2023-04-29T07:40:24.651Z,97806.19
2023-04-29T07:42:57.653Z,97803.28
2023-04-29T07:45:30.631Z,97812.56
2023-04-29T07:48:03.681Z,97811.16
2023-04-29T07:50:38.180Z,97808.28
2023-04-29T07:53:11.333Z,97810.13
2023-04-29T07:55:44.409Z,97813.06
2023-04-29T07:58:17.359Z,97815.69
2023-04-29T08:00:50.319Z,97818.59
2023-04-29T08:03:23.428Z,97824.22
2023-04-29T08:06:03.349Z,97827.50
2023-04-29T08:08:36.458Z,97826.66
2023-04-29T08:11:09.464Z,97826.34
2023-04-29T08:13:42.409Z,97833.75
2023-04-29T08:16:15.729Z,97827.97
2023-04-29T08:18:48.757Z,97830.19
2023-04-29T08:21:23.130Z,97827.41
2023-04-29T08:23:56.498Z,97835.78
2023-04-29T08:26:30.398Z,97836.59
2023-04-29T08:29:03.733Z,97836.84
2023-04-29T08:31:36.870Z,97833.09
2023-04-29T08:34:09.883Z,97836.22
2023-04-29T08:36:44.235Z,97835.22
2023-04-29T08:39:17.502Z,97837.47
2023-04-29T08:41:52.003Z,97829.75
2023-04-29T08:44:26.884Z,97842.75
2023-04-29T08:47:01.456Z,97840.22
2023-04-29T08:49:34.865Z,97838.91
2023-04-29T08:52:09.250Z,97842.03
2023-04-29T08:54:42.278Z,97828.66
2023-04-29T08:57:16.595Z,97836.69
2023-04-29T08:59:49.547Z,97847.50
2023-04-29T09:02:24.431Z,97842.47
2023-04-29T09:05:12.111Z,97846.09
2023-04-29T09:07:47.838Z,97840.81
2023-04-29T09:10:21.790Z,97840.81
2023-04-29T09:12:58.365Z,97844.59
2023-04-29T09:15:37.055Z,97836.59
2023-04-29T09:18:10.029Z,97848.66
2023-04-29T09:20:43.096Z,97847.97
2023-04-29T09:23:17.417Z,97855.44
2023-04-29T09:25:57.805Z,97846.19
2023-04-29T09:28:31.034Z,97846.13
2023-04-29T09:31:06.536Z,97850.91
2023-04-29T09:33:54.509Z,97847.00
2023-04-29T09:36:42.213Z,97852.44
2023-04-29T09:39:18.725Z,97857.31
2023-04-29T09:42:03.039Z,97855.72
2023-04-29T09:44:37.025Z,97860.69
2023-04-29T09:47:11.806Z,97860.88
2023-04-29T09:49:46.805Z,97857.91
2023-04-29T09:52:20.900Z,97861.81
2023-04-29T09:55:07.242Z,97866.03
2023-04-29T09:57:44.848Z,97868.88
2023-04-29T10:00:18.838Z,97864.16
2023-04-29T10:02:55.384Z,97869.22
2023-04-29T10:05:30.980Z,97874.31
2023-04-29T10:08:04.825Z,97879.06
2023-04-29T10:10:39.179Z,97873.00
2023-04-29T10:13:12.251Z,97875.66
2023-04-29T10:15:59.921Z,97876.72
2023-04-29T10:18:38.257Z,97871.31
2023-04-29T10:21:12.187Z,97867.31
2023-04-29T10:23:46.044Z,97881.72
2023-04-29T10:26:21.414Z,97868.81
2023-04-29T10:28:57.518Z,97873.47
2023-04-29T10:31:31.417Z,97879.03
2023-04-29T10:34:04.393Z,97875.91
2023-04-29T10:36:39.061Z,97876.91
2023-04-29T10:39:25.498Z,97871.81
2023-04-29T10:41:59.977Z,97877.72
2023-04-29T10:44:32.985Z,97866.97
2023-04-29T10:47:22.562Z,97861.56
2023-04-29T10:50:06.394Z,97854.25
2023-04-29T10:52:56.342Z,97861.63
2023-04-29T10:55:29.478Z,97862.16
2023-04-29T10:58:05.145Z,97854.91
2023-04-29T11:00:39.666Z,97849.66
2023-04-29T11:03:58.565Z,97851.91
2023-04-29T11:06:43.239Z,97859.75
2023-04-29T11:09:21.391Z,97856.06
2023-04-29T11:12:03.237Z,97856.16
2023-04-29T11:14:41.020Z,97853.69
2023-04-29T11:17:15.897Z,97850.28
2023-04-29T11:19:52.215Z,97853.97
2023-04-29T11:22:30.403Z,97854.19
2023-04-29T11:25:07.607Z,97854.28
2023-04-29T11:27:42.664Z,97852.44
2023-04-29T11:30:18.462Z,97862.09
2023-04-29T11:32:52.041Z,97853.25
2023-04-29T11:35:25.149Z,97846.75
2023-04-29T11:38:01.125Z,97842.63
2023-04-29T11:40:34.416Z,97841.75
2023-04-29T11:43:07.570Z,97845.97
2023-04-29T11:45:41.898Z,97840.41
2023-04-29T11:48:19.773Z,97848.91
2023-04-29T11:50:54.653Z,97848.91
2023-04-29T11:53:28.699Z,97848.00
2023-04-29T11:56:01.645Z,97859.44
2023-04-29T11:58:34.749Z,97847.50
2023-04-29T12:01:09.555Z,97855.91
2023-04-29T12:03:46.476Z,97844.72
2023-04-29T12:06:19.646Z,97835.53
2023-04-29T12:08:52.594Z,97849.91
2023-04-29T12:11:26.683Z,97847.38
2023-04-29T12:14:02.530Z,97849.69
2023-04-29T12:16:37.583Z,97851.88
2023-04-29T12:19:11.997Z,97861.91
2023-04-29T12:21:52.263Z,97857.44
2023-04-29T12:24:26.216Z,97857.88
2023-04-29T12:26:59.850Z,97852.53
2023-04-29T12:29:33.386Z,97845.56
2023-04-29T12:32:08.855Z,97846.50
2023-04-29T12:34:42.875Z,97848.78
2023-04-29T12:37:16.794Z,97854.84
2023-04-29T12:39:52.742Z,97849.81
2023-04-29T12:42:25.728Z,97847.53
2023-04-29T12:44:58.773Z,97861.22
2023-04-29T12:47:36.918Z,97858.97
2023-04-29T12:50:12.122Z,97854.88
2023-04-29T12:52:45.124Z,97859.53
2023-04-29T12:55:18.270Z,97855.28
2023-04-29T12:57:51.420Z,97850.88
2023-04-29T13:00:25.188Z,97855.31
2023-04-29T13:02:59.573Z,97854.19
2023-04-29T13:05:32.727Z,97854.75
2023-04-29T13:08:06.603Z,97853.16
2023-04-29T13:10:39.652Z,97865.81
2023-04-29T13:13:12.673Z,97868.91
2023-04-29T13:15:45.679Z,97863.22
2023-04-29T13:18:20.113Z,97856.78
2023-04-29T13:20:53.761Z,97861.94
2023-04-29T13:23:26.717Z,97862.88
2023-04-29T13:25:59.727Z,97865.72
2023-04-29T13:28:32.713Z,97860.47
2023-04-29T13:31:05.874Z,97871.91
2023-04-29T13:33:40.408Z,97872.81
2023-04-29T13:36:13.401Z,97865.16
2023-04-29T13:38:49.799Z,97864.06
2023-04-29T13:41:28.500Z,97868.34
2023-04-29T13:44:02.306Z,97868.25
2023-04-29T13:46:35.545Z,97864.91
2023-04-29T13:49:38.393Z,97869.31
2023-04-29T13:54:59.149Z,97871.81
2023-04-29T14:00:31.578Z,97884.19
2023-04-29T14:03:04.500Z,97888.13
2023-04-29T14:05:39.131Z,97891.03
2023-04-29T14:08:12.288Z,97887.78
2023-04-29T14:10:45.272Z,97886.94
2023-04-29T14:13:18.673Z,97885.03
2023-04-29T14:15:51.890Z,97889.94
2023-04-29T14:18:24.939Z,97887.16
2023-04-29T14:20:59.574Z,97897.28
2023-04-29T14:23:32.585Z,97896.31
2023-04-29T14:26:26.534Z,97897.97
2023-04-29T14:29:01.113Z,97894.59
2023-04-29T14:31:37.933Z,97895.31
2023-04-29T14:34:11.207Z,97895.38
2023-04-29T14:36:46.708Z,97904.69
2023-04-29T14:39:19.820Z,97895.88
2023-04-29T14:41:52.785Z,97907.78
2023-04-29T14:44:25.752Z,97899.69
2023-04-29T14:46:58.686Z,97901.69
2023-04-29T14:49:31.863Z,97909.22
2023-04-29T14:52:06.503Z,97915.97
2023-04-29T14:54:39.541Z,97914.91
2023-04-29T14:57:12.899Z,97916.28
2023-04-29T14:59:45.897Z,97910.84
2023-04-29T15:02:18.845Z,97918.59
2023-04-29T15:04:51.874Z,97919.22
2023-04-29T15:07:26.359Z,97914.78
2023-04-29T15:09:59.416Z,97922.31
2023-04-29T15:12:32.391Z,97925.06
2023-04-29T15:15:06.573Z,97921.03
2023-04-29T15:17:39.508Z,97927.75
2023-04-29T15:20:13.395Z,97931.00
2023-04-29T15:22:48.029Z,97931.63
2023-04-29T15:25:21.508Z,97932.00
2023-04-29T15:27:54.970Z,97939.56
2023-04-29T15:30:28.243Z,97936.72
2023-04-29T15:33:01.362Z,97937.44
2023-04-29T15:35:36.408Z,97939.09
2023-04-29T15:38:12.087Z,97940.91
2023-04-29T15:40:45.214Z,97942.56
2023-04-29T15:43:26.773Z,97946.53
2023-04-29T15:46:08.688Z,97950.47
2023-04-29T15:48:45.893Z,97959.03
2023-04-29T15:51:21.538Z,97957.56
2023-04-29T15:53:58.847Z,97951.34
2023-04-29T15:56:33.091Z,97957.41
2023-04-29T15:59:06.514Z,97961.69
2023-04-29T16:01:40.002Z,97966.28
2023-04-29T16:04:13.491Z,97967.63
2023-04-29T16:06:46.889Z,97963.81
2023-04-29T16:09:21.630Z,97971.03
2023-04-29T16:11:54.736Z,97975.88
2023-04-29T16:14:27.966Z,97974.09
2023-04-29T16:17:02.597Z,97979.47
2023-04-29T16:19:37.086Z,97977.63
2023-04-29T16:22:24.668Z,97976.03
2023-04-29T16:24:59.099Z,97983.53
2023-04-29T16:27:32.274Z,97990.44
2023-04-29T16:30:06.740Z,97993.84
2023-04-29T16:32:41.488Z,97994.19
2023-04-29T16:35:14.637Z,97997.34
2023-04-29T16:37:48.056Z,98001.94
2023-04-29T16:40:23.987Z,98001.63
2023-04-29T16:42:57.893Z,98002.50
2023-04-29T16:45:31.452Z,98004.41
2023-04-29T16:48:04.806Z,97995.59
2023-04-29T16:50:38.770Z,97999.69
2023-04-29T16:53:11.727Z,98013.06
2023-04-29T16:55:46.640Z,98007.66
2023-04-29T16:58:19.599Z,98007.53
2023-04-29T17:00:55.194Z,98010.53
2023-04-29T17:03:28.367Z,98005.81
2023-04-29T17:06:01.662Z,98014.44
2023-04-29T17:08:34.723Z,98011.91
2023-04-29T17:11:09.134Z,98023.00
2023-04-29T17:13:44.825Z,98023.66
2023-04-29T17:16:19.971Z,98020.16
2023-04-29T17:18:53.299Z,98025.94
2023-04-29T17:21:26.359Z,98017.34
2023-04-29T17:23:59.852Z,98020.91
2023-04-29T17:26:34.170Z,98013.19
2023-04-29T17:29:07.130Z,98021.91
2023-04-29T17:31:45.827Z,98022.97
2023-04-29T17:34:23.901Z,98020.59
2023-04-29T17:36:56.964Z,98034.03
2023-04-29T17:39:30.075Z,98028.53
2023-04-29T17:42:04.447Z,98033.31
2023-04-29T17:44:38.007Z,98028.19
2023-04-29T17:47:12.657Z,98028.94
2023-04-29T17:49:45.805Z,98029.91
2023-04-29T17:52:21.160Z,98028.06
2023-04-29T17:54:54.453Z,98027.94
2023-04-29T17:57:29.585Z,98032.97
2023-04-29T18:00:03.260Z,98031.09
2023-04-29T18:02:37.297Z,98039.31
2023-04-29T18:05:10.740Z,98041.09
2023-04-29T18:07:43.694Z,98042.59
2023-04-29T18:10:16.937Z,98045.91
2023-04-29T18:12:51.312Z,98047.53
2023-04-29T18:15:24.240Z,98043.13
2023-04-29T18:17:57.293Z,98047.31
2023-04-29T18:20:30.953Z,98056.22
2023-04-29T18:23:03.847Z,98057.97
2023-04-29T18:25:38.386Z,98052.56
2023-04-29T18:28:23.545Z,98058.44
2023-04-29T18:30:57.658Z,98058.22
2023-04-29T18:33:30.991Z,98062.13
2023-04-29T18:36:04.052Z,98060.31
2023-04-29T18:38:38.006Z,98056.75
2023-04-29T18:41:12.023Z,98060.59
2023-04-29T18:43:46.328Z,98057.66
2023-04-29T18:46:19.374Z,98066.19
2023-04-29T18:48:52.596Z,98054.13
2023-04-29T18:51:25.566Z,98066.19
2023-04-29T18:53:58.587Z,98064.22
2023-04-29T18:56:31.548Z,98067.81
2023-04-29T18:59:05.826Z,98073.59
2023-04-29T19:01:38.797Z,98069.28
2023-04-29T19:04:11.956Z,98078.81
2023-04-29T19:06:45.198Z,98080.44
2023-04-29T19:09:18.325Z,98082.84
2023-04-29T19:11:51.302Z,98089.69
2023-04-29T19:14:25.715Z,98089.41
2023-04-29T19:16:58.660Z,98086.63
2023-04-29T19:19:31.720Z,98085.88
2023-04-29T19:22:05.448Z,98089.13
2023-04-29T19:24:39.405Z,98089.13
2023-04-29T19:27:12.368Z,98097.63
2023-04-29T19:29:46.723Z,98094.13
2023-04-29T19:32:22.530Z,98102.47
2023-04-29T19:34:55.506Z,98104.75
2023-04-29T19:37:28.453Z,98109.75
2023-04-29T19:40:01.414Z,98101.59
2023-04-29T19:42:34.312Z,98106.66
2023-04-29T19:45:10.180Z,98111.72
2023-04-29T19:47:43.380Z,98111.34
2023-04-29T19:50:16.579Z,98111.44
2023-04-29T19:52:49.565Z,98115.31
2023-04-29T19:55:23.103Z,98119.47
2023-04-29T19:57:56.386Z,98116.09
2023-04-29T20:00:31.469Z,98122.19
2023-04-29T20:03:04.914Z,98125.47
2023-04-29T20:05:37.920Z,98123.00
2023-04-29T20:08:10.918Z,98123.78
2023-04-29T20:10:43.888Z,98112.59
2023-04-29T20:13:16.923Z,98120.19
2023-04-29T20:15:51.856Z,98123.31
2023-04-29T20:18:24.787Z,98121.38
2023-04-29T20:20:57.771Z,98128.13
2023-04-29T20:23:30.745Z,98132.97
2023-04-29T20:26:03.860Z,98130.31
2023-04-29T20:28:36.843Z,98133.59
2023-04-29T20:31:11.127Z,98132.47
2023-04-29T20:33:44.240Z,98133.16
2023-04-29T20:36:17.189Z,98135.56
2023-04-29T20:38:50.205Z,98137.84
2023-04-29T20:41:23.153Z,98142.75
2023-04-29T20:43:56.245Z,98147.09
2023-04-29T20:46:30.688Z,98145.09
2023-04-29T20:49:04.530Z,98147.66
2023-04-29T20:51:37.474Z,98155.28
2023-04-29T20:54:11.550Z,98154.88
2023-04-29T20:56:44.511Z,98154.78
2023-04-29T20:59:17.574Z,98146.94
2023-04-29T21:01:52.207Z,98157.28
2023-04-29T21:04:25.318Z,98160.72
2023-04-29T21:06:58.282Z,98159.91
2023-04-29T21:09:31.363Z,98157.13
2023-04-29T21:12:05.774Z,98164.72
2023-04-29T21:14:40.246Z,98157.19
2023-04-29T21:17:16.308Z,98156.25
2023-04-29T21:19:49.255Z,98158.88
2023-04-29T21:22:22.208Z,98166.50
2023-04-29T21:24:55.127Z,98160.47
2023-04-29T21:27:28.096Z,98161.38
2023-04-29T21:30:01.036Z,98160.41
2023-04-29T21:32:36.029Z,98167.94
2023-04-29T21:35:10.179Z,98165.38
2023-04-29T21:37:43.116Z,98165.44
2023-04-29T21:40:16.936Z,98162.81
2023-04-29T21:42:51.079Z,98171.78
2023-04-29T21:45:24.545Z,98167.28
2023-04-29T21:48:05.576Z,98174.19
2023-04-29T21:50:39.105Z,98172.59
2023-04-29T21:53:15.875Z,98164.09
2023-04-29T21:55:49.504Z,98166.72
2023-04-29T21:58:22.419Z,98166.13
2023-04-29T22:01:01.452Z,98156.56
2023-04-29T22:03:36.493Z,98161.19
2023-04-29T22:06:09.524Z,98167.63
2023-04-29T22:08:42.466Z,98170.81
2023-04-29T22:11:15.700Z,98163.66
2023-04-29T22:13:48.897Z,98161.81
2023-04-29T22:16:23.433Z,98159.91
2023-04-29T22:18:58.112Z,98163.19
2023-04-29T22:21:31.573Z,98164.88
2023-04-29T22:24:05.175Z,98175.13
2023-04-29T22:26:38.124Z,98172.63
2023-04-29T22:29:11.411Z,98170.06
2023-04-29T22:31:44.376Z,98169.28
2023-04-29T22:34:18.746Z,98174.41
2023-04-29T22:36:51.672Z,98174.31
2023-04-29T22:39:24.633Z,98170.63
2023-04-29T22:41:57.582Z,98175.59
2023-04-29T22:44:30.491Z,98173.19
2023-04-29T22:47:03.964Z,98172.31
2023-04-29T22:49:38.225Z,98177.38
2023-04-29T22:52:11.174Z,98180.88
2023-04-29T22:54:44.115Z,98172.84
2023-04-29T22:57:17.057Z,98171.09
2023-04-29T22:59:50.026Z,98179.41
2023-04-29T23:02:27.456Z,98178.69
2023-04-29T23:05:01.821Z,98179.25
2023-04-29T23:07:34.864Z,98175.63
2023-04-29T23:10:08.851Z,98173.19
2023-04-29T23:12:42.040Z,98168.50
2023-04-29T23:15:15.102Z,98184.22
2023-04-29T23:17:48.061Z,98171.38
2023-04-29T23:20:22.669Z,98171.56
2023-04-29T23:22:55.764Z,98168.97
2023-04-29T23:25:28.754Z,98176.66
2023-04-29T23:28:01.725Z,98177.00
2023-04-29T23:30:34.696Z,98168.59
2023-04-29T23:33:07.774Z,98176.44
2023-04-29T23:35:42.224Z,98170.44
2023-04-29T23:38:15.214Z,98170.44
2023-04-29T23:40:48.337Z,98165.47
2023-04-29T23:43:21.565Z,98167.25
2023-04-29T23:45:54.530Z,98165.31
2023-04-29T23:48:27.524Z,98172.84
2023-04-29T23:51:01.813Z,98167.34
2023-04-29T23:53:34.914Z,98177.09
2023-04-29T23:56:08.584Z,98179.66
2023-04-29T23:58:41.567Z,98176.75
